Latest Weather Observations for Winton

IDQ60801

Issued at 4:32 pm EST Monday 24 July 2017 (issued every 30 minutes, with the page automatically refreshed every 10 minutes)

About weather observations | Map of weather stations | Latest weather observations for QLD | Other Formats
Station Details ID: 037039 Name: WINTON AIRPORT Lat: -22.36 Lon: 143.08 Height: 192.2 m
Data from the previous 72 hours. | See also: Recent months at Winton
Date/Time
EST
Temp
°C
App
Temp
°C
Dew
Point
°C
Rel
Hum
%
Delta-T
°C
Wind Press
QNH
hPa
Press
MSL
hPa
Rain since
9am
mm
Dir  Spd
km/h
Gust
km/h
Spd
kts
Gust
kts
24/04:30pm 27.6 23.1 4.0 22 12.0 SE 17 26 9 14 1016.9 1016.5 0.0
24/04:00pm 27.9 23.5 4.9 23 11.9 SSE 17 24 9 13 1016.8 1016.4 0.0
24/03:30pm 28.2 25.4 5.1 23 12.0 SE 9 20 5 11 1016.9 1016.5 0.0
24/03:00pm 28.7 25.5 4.9 22 12.4 SSE 11 20 6 11 1017.0 1016.6 0.0
24/02:30pm 28.3 24.6 4.6 22 12.2 ESE 13 24 7 13 1017.3 1016.9 0.0
24/02:00pm 28.9 25.2 6.3 24 12.0 ESE 15 26 8 14 1017.7 1017.4 0.0
24/01:30pm 27.5 24.2 6.3 26 11.2 SE 13 19 7 10 1018.3 1018.0 0.0
24/01:00pm 27.5 24.4 7.4 28 10.8 E 13 24 7 13 1018.9 1018.6 0.0
24/12:30pm 27.0 23.7 8.0 30 10.3 E 15 24 8 13 1019.5 1019.2 0.0
24/12:00pm 26.2 22.4 7.7 31 9.9 E 17 24 9 13 1020.0 1019.7 0.0
24/11:30am 25.9 21.9 8.4 33 9.5 E 19 28 10 15 1020.7 1020.4 0.0
24/11:00am 25.8 22.5 9.6 36 9.0 E 17 26 9 14 1021.0 1020.7 0.0
24/10:30am 24.2 22.0 9.4 39 8.1 ESE 11 20 6 11 1021.3 1021.0 0.0
24/10:00am 22.1 19.0 7.1 38 7.8 E 13 17 7 9 1021.3 1021.0 0.0
24/09:30am 20.0 16.4 4.9 37 7.4 E 13 17 7 9 1021.3 1021.0 0.0
24/09:00am 17.6 13.0 3.5 39 6.6 E 17 20 9 11 1021.1 1020.8 0.0
24/08:30am 16.4 12.4 2.8 40 6.2 E 13 19 7 10 1020.9 1020.6 0.0
24/08:00am 14.3 10.4 1.2 41 5.7 ESE 11 13 6 7 1020.6 1020.3 0.0
24/07:30am 12.3 8.6 -0.2 42 5.2 ESE 9 13 5 7 1020.2 1019.9 0.0
24/07:00am 11.9 7.7 -0.6 42 5.1 ESE 11 15 6 8 1019.9 1019.6 0.0
24/06:30am 12.3 7.7 -0.9 40 5.4 ESE 13 15 7 8 1019.6 1019.3 0.0
24/06:00am 13.1 8.5 -0.9 38 5.7 ESE 13 15 7 8 1019.3 1019.0 0.0
24/05:30am 13.7 9.1 -1.1 36 6.1 ESE 13 17 7 9 1018.9 1018.6 0.0
24/05:00am 14.4 9.5 -0.5 36 6.2 SE 15 17 8 9 1018.7 1018.4 0.0
24/04:30am 14.2 9.7 -0.3 37 6.1 SE 13 15 7 8 1018.5 1018.2 0.0
24/04:00am 14.7 9.8 -0.2 36 6.3 SE 15 19 8 10 1018.5 1018.2 0.0
24/03:30am 13.4 9.4 0.8 42 5.4 ESE 11 15 6 8 1018.6 1018.3 0.0
24/03:00am 13.4 9.4 0.4 41 5.5 E 11 13 6 7 1018.7 1018.4 0.0
24/02:30am 16.1 11.8 0.7 35 6.7 SE 13 17 7 9 1018.4 1018.1 0.0
24/02:00am 15.8 11.8 0.8 36 6.5 ESE 11 15 6 8 1018.5 1018.2 0.0
24/01:30am 16.2 12.7 1.1 36 6.7 SE 9 9 5 5 1018.3 1018.0 0.0
24/01:00am 17.0 12.8 1.8 36 6.8 SE 13 15 7 8 1018.2 1017.9 0.0
24/12:30am 14.9 11.0 1.4 40 5.9 ESE 11 11 6 6 1018.4 1018.1 0.0
24/12:00am 14.6 11.4 0.8 39 6.0 SE 7 9 4 5 1018.3 1018.0 0.0
 
Date/Time
EST
Temp
°C
App
Temp
°C
Dew
Point
°C
Rel
Hum
%
Delta-T
°C
Wind Press
QNH
hPa
Press
MSL
hPa
Rain since
9am
mm
Dir  Spd
km/h
Gust
km/h
Spd
kts
Gust
kts
23/11:30pm 15.1 12.1 0.5 37 6.3 ESE 6 6 3 3 1018.5 1018.2 0.0
23/11:00pm 16.6 13.3 0.3 33 7.1 SSE 7 9 4 5 1018.6 1018.3 0.0
23/10:30pm 17.1 13.1 0.7 33 7.2 SSE 11 11 6 6 1018.5 1018.2 0.0
23/10:00pm 17.3 13.7 0.9 33 7.3 SSE 9 9 5 5 1018.7 1018.4 0.0
23/09:30pm 18.2 14.3 1.3 32 7.6 SSE 11 13 6 7 1018.6 1018.3 0.0
23/09:00pm 18.8 15.0 1.8 32 7.8 SSE 11 13 6 7 1018.6 1018.3 0.0
23/08:30pm 19.9 16.3 2.7 32 8.1 SSE 11 13 6 7 1018.3 1018.0 0.0
23/08:00pm 19.8 16.2 3.1 33 7.9 SSE 11 13 6 7 1018.0 1017.7 0.0
23/07:30pm 20.9 17.3 3.2 31 8.5 SSE 11 13 6 7 1017.6 1017.3 0.0
23/07:00pm 22.2 18.8 3.8 30 9.0 SSE 11 13 6 7 1017.3 1016.9 0.0
23/06:30pm 23.8 20.0 3.7 27 9.9 SSE 13 15 7 8 1016.8 1016.4 0.0
23/06:00pm 25.4 21.3 4.5 26 10.6 SSE 15 19 8 10 1016.4 1016.0 0.0
23/05:30pm 26.7 22.6 4.5 24 11.3 SSE 15 20 8 11 1016.1 1015.7 0.0
23/05:00pm 27.5 23.5 5.1 24 11.6 SSE 15 22 8 12 1015.8 1015.5 0.0
23/04:30pm 28.1 24.3 5.6 24 11.8 SE 15 22 8 12 1015.6 1015.3 0.0
23/04:00pm 28.1 24.6 5.6 24 11.8 SE 13 22 7 12 1015.7 1015.4 0.0
23/03:30pm 28.1 24.4 6.2 25 11.6 SSE 15 22 8 12 1015.7 1015.4 0.0
23/03:00pm 28.0 24.4 6.7 26 11.4 SE 15 22 8 12 1016.1 1015.7 0.0
23/02:30pm 27.7 24.5 7.0 27 11.1 SSE 13 26 7 14 1016.4 1016.0 0.0
23/02:00pm 27.2 24.2 7.6 29 10.6 ESE 13 20 7 11 1016.8 1016.4 0.0
23/01:30pm 26.8 23.7 7.3 29 10.5 SSE 13 17 7 9 1017.2 1016.8 0.0
23/01:00pm 26.6 23.8 8.6 32 9.8 SE 13 20 7 11 1017.7 1017.4 0.0
23/12:30pm 25.8 23.5 10.4 38 8.7 SE 13 20 7 11 1018.3 1018.0 0.0
23/12:00pm 24.4 22.4 10.3 41 7.8 SSE 11 20 6 11 1018.8 1018.5 0.0
23/11:30am 22.8 20.9 8.9 41 7.5 SE 9 15 5 8 1019.3 1019.0 0.0
23/11:00am 21.7 19.6 8.2 42 7.1 SE 9 17 5 9 1019.5 1019.2 0.0
23/10:30am 20.7 18.2 8.0 44 6.7 ESE 11 17 6 9 1019.9 1019.6 0.0
23/10:00am 19.1 16.3 6.9 45 6.2 ESE 11 19 6 10 1020.0 1019.7 0.0
23/09:30am 18.1 15.2 6.3 46 5.9 ESE 11 17 6 9 1019.9 1019.6 0.0
23/09:00am 16.7 13.6 3.7 42 6.1 SE 9 13 5 7 1019.8 1019.5 0.0
23/08:30am 14.9 11.3 0.7 38 6.1 SSE 9 13 5 7 1019.5 1019.2 0.0
23/08:00am 12.9 9.6 -1.4 37 5.8 SSE 6 7 3 4 1019.1 1018.8 0.0
23/07:30am 11.1 7.2 -1.6 41 5.0 ESE 9 11 5 6 1018.6 1018.3 0.0
23/07:00am 10.8 7.2 -1.9 41 5.0 ESE 7 9 4 5 1018.5 1018.2 0.0
23/06:30am 11.0 7.0 -2.4 39 5.2 ESE 9 11 5 6 1018.1 1017.8 0.0
23/06:00am 11.7 8.1 -1.8 39 5.3 SE 7 9 4 5 1018.1 1017.8 0.0
23/05:30am 11.9 8.0 -1.6 39 5.4 SSE 9 9 5 5 1018.0 1017.7 0.0
23/05:00am 10.6 7.0 -3.5 37 5.3 SSE 6 6 3 3 1017.7 1017.4 0.0
23/04:30am 12.2 8.1 -2.8 35 5.8 SE 9 9 5 5 1017.5 1017.2 0.0
23/04:00am 12.0 7.6 -2.6 36 5.7 SSE 11 13 6 7 1017.6 1017.3 0.0
23/03:30am 10.5 6.8 -2.5 40 5.0 SSE 7 9 4 5 1017.7 1017.4 0.0
23/03:00am 11.8 8.7 -2.8 36 5.7 ESE 4 6 2 3 1017.8 1017.5 0.0
23/02:30am 12.6 9.2 -2.1 36 5.8 SE 6 7 3 4 1017.9 1017.6 0.0
23/02:00am 11.8 8.1 -2.8 36 5.7 SSE 7 7 4 4 1018.0 1017.7 0.0
23/01:30am 11.9 9.0 -1.3 40 5.3 SE 4 6 2 3 1018.2 1017.9 0.0
23/01:00am 11.0 7.9 -2.4 39 5.2 SSE 4 6 2 3 1018.3 1018.0 0.0
23/12:30am 11.6 8.9 -2.6 37 5.5 SSE 2 4 1 2 1018.3 1018.0 0.0
23/12:00am 13.8 10.9 -1.4 35 6.2 ESE 4 6 2 3 1018.4 1018.1 0.0
 
Date/Time
EST
Temp
°C
App
Temp
°C
Dew
Point
°C
Rel
Hum
%
Delta-T
°C
Wind Press
QNH
hPa
Press
MSL
hPa
Rain since
9am
mm
Dir  Spd
km/h
Gust
km/h
Spd
kts
Gust
kts
22/11:30pm 14.6 11.4 -0.7 35 6.4 SE 6 6 3 3 1018.4 1018.1 0.0
22/11:00pm 14.2 10.7 -1.4 34 6.4 SSE 7 7 4 4 1018.5 1018.2 0.0
22/10:30pm 14.7 11.2 -1.4 33 6.6 S 7 9 4 5 1018.6 1018.3 0.0
22/10:00pm 14.9 11.4 -1.2 33 6.7 S 7 9 4 5 1018.5 1018.2 0.0
22/09:30pm 15.3 11.0 -1.3 32 6.9 S 11 13 6 7 1018.3 1018.0 0.0
22/09:00pm 15.4 11.5 -1.6 31 7.0 SSW 9 11 5 6 1018.3 1018.0 0.0
22/08:30pm 16.0 11.7 -2.0 29 7.4 SSW 11 13 6 7 1018.1 1017.8 0.0
22/08:00pm 17.4 13.2 -0.8 29 7.8 S 11 15 6 8 1017.9 1017.6 0.0
22/07:30pm 17.7 13.4 -1.5 27 8.1 SSW 11 11 6 6 1017.5 1017.2 0.0
22/07:00pm 18.4 14.1 -1.4 26 8.5 SSW 11 11 6 6 1017.0 1016.6 0.0
22/06:30pm 21.1 16.9 -0.8 23 9.7 S 11 13 6 7 1016.5 1016.1 0.0
22/06:00pm 24.0 20.6 -0.3 20 11.1 S 7 9 4 5 1016.1 1015.7 0.0
22/05:30pm 26.0 22.7 -0.1 18 12.2 SE 7 13 4 7 1015.7 1015.4 0.0
22/05:00pm 26.6 23.3 0.4 18 12.4 SE 7 11 4 6 1015.4 1015.1 0.0
22/04:30pm 26.9 23.2 -0.2 17 12.7 SE 9 15 5 8 1015.4 1015.1 0.0
22/04:00pm 27.2 24.5 0.1 17 12.8 SE 4 11 2 6 1015.4 1015.1 0.0
22/03:30pm 27.4 24.4 1.0 18 12.7 ESE 6 13 3 7 1015.6 1015.3 0.0
22/03:00pm 26.7 23.1 0.4 18 12.4 SE 9 17 5 9 1016.0 1015.6 0.0
22/02:30pm 26.5 23.4 0.3 18 12.4 ESE 6 19 3 10 1016.4 1016.0 0.0
22/02:00pm 26.8 23.3 1.3 19 12.3 E 9 17 5 9 1016.8 1016.4 0.0
22/01:30pm 26.2 22.4 1.5 20 11.9 ESE 11 19 6 10 1017.1 1016.7 0.0
22/01:00pm 25.5 21.7 1.6 21 11.5 E 11 20 6 11 1017.6 1017.3 0.0
22/12:30pm 25.6 21.8 1.7 21 11.5 ENE 11 24 6 13 1018.1 1017.8 0.0
22/12:00pm 24.5 19.9 1.4 22 10.9 ENE 15 22 8 12 1018.6 1018.3 0.0
22/11:30am 23.6 19.1 1.9 24 10.3 E 15 24 8 13 1019.3 1019.0 0.0
22/11:00am 22.1 17.5 1.7 26 9.5 E 15 22 8 12 1019.9 1019.6 0.0
22/10:30am 20.1 15.7 0.5 27 8.8 ESE 13 19 7 10 1020.4 1020.1 0.0
22/10:00am 19.0 14.2 0.1 28 8.3 ESE 15 20 8 11 1020.7 1020.4 0.0
22/09:30am 17.4 12.5 -0.3 30 7.7 ESE 15 20 8 11 1020.7 1020.4 0.0
22/09:00am 14.9 9.9 -1.2 33 6.7 ESE 15 19 8 10 1020.6 1020.3 0.0
22/08:30am 12.6 8.4 -1.0 39 5.5 ESE 11 15 6 8 1020.3 1020.0 0.0
22/08:00am 9.2 5.3 -1.8 46 4.2 ESE 9 11 5 6 1020.1 1019.8 0.0
22/07:30am 6.6 2.6 -2.3 53 3.3 ESE 9 11 5 6 1019.9 1019.6 0.0
22/07:00am 5.1 1.5 -3.4 54 3.0 E 6 6 3 3 1019.7 1019.4 0.0
22/06:30am 6.7 3.2 -2.7 51 3.4 SE 6 6 3 3 1019.4 1019.1 0.0
22/06:00am 6.2 2.7 -3.2 51 3.4 ESE 6 7 3 4 1019.3 1019.0 0.0
22/05:30am 6.7 3.5 -3.5 48 3.7 SE 4 6 2 3 1018.9 1018.6 0.0
22/05:00am 7.2 3.7 -3.1 48 3.8 SE 6 7 3 4 1018.7 1018.4 0.0
22/04:30am 7.0 3.5 -3.2 48 3.7 E 6 6 3 3 1018.7 1018.4 0.0
22/04:00am 6.9 3.3 -3.6 47 3.8 E 6 7 3 4 1018.6 1018.3 0.0
22/03:30am 8.0 3.9 -3.2 45 4.1 ESE 9 11 5 6 1018.8 1018.5 0.0
22/03:00am 8.9 5.3 -3.3 42 4.5 ESE 6 9 3 5 1019.1 1018.8 0.0
22/02:30am 9.1 5.6 -3.1 42 4.6 SE 6 7 3 4 1019.0 1018.7 0.0
22/02:00am 9.2 5.4 -3.7 40 4.7 ESE 7 9 4 5 1019.3 1019.0 0.0
22/01:30am 11.4 7.9 -2.8 37 5.5 SE 6 7 3 4 1019.4 1019.1 0.0
22/01:00am 11.2 7.4 -3.7 35 5.6 SE 7 7 4 4 1019.3 1019.0 0.0
22/12:30am 11.5 7.6 -4.2 33 5.9 SSE 7 9 4 5 1019.3 1019.0 0.0
22/12:00am 11.3 7.5 -3.6 35 5.6 SSE 7 9 4 5 1019.4 1019.1 0.0
 
Date/Time
EST
Temp
°C
App
Temp
°C
Dew
Point
°C
Rel
Hum
%
Delta-T
°C
Wind Press
QNH
hPa
Press
MSL
hPa
Rain since
9am
mm
Dir  Spd
km/h
Gust
km/h
Spd
kts
Gust
kts
21/11:30pm 10.8 7.1 -4.8 33 5.7 SSE 6 7 3 4 1019.4 1019.1 0.0
21/11:00pm 11.4 7.7 -4.7 32 5.9 SSE 6 7 3 4 1019.5 1019.2 0.0
21/10:30pm 12.4 9.2 -3.8 32 6.2 S 4 7 2 4 1019.6 1019.3 0.0
21/10:00pm 12.6 8.7 -4.5 30 6.4 SE 7 9 4 5 1019.6 1019.3 0.0
21/09:30pm 13.8 9.5 -4.4 28 7.0 SE 9 9 5 5 1019.5 1019.2 0.0
21/09:00pm 15.5 11.4 -3.4 27 7.5 SSE 9 9 5 5 1019.4 1019.1 0.0
21/08:30pm 15.9 11.7 -3.6 26 7.8 SSE 9 9 5 5 1019.1 1018.8 0.0
21/08:00pm 16.6 12.4 -3.5 25 8.1 SSE 9 11 5 6 1018.7 1018.4 0.0
21/07:30pm 17.7 13.5 -3.7 23 8.7 SE 9 11 5 6 1018.4 1018.1 0.0
21/07:00pm 18.6 14.4 -4.1 21 9.2 SE 9 9 5 5 1018.0 1017.7 0.0
21/06:30pm 19.3 15.1 -4.2 20 9.6 SE 9 9 5 5 1017.8 1017.5 0.0
21/06:00pm 20.7 16.4 -4.4 18 10.3 SE 9 11 5 6 1017.3 1016.9 0.0
21/05:30pm 23.1 18.9 -4.1 16 11.5 SSE 9 15 5 8 1017.1 1016.7 0.0
21/05:00pm 23.8 19.2 -4.4 15 11.9 SSE 11 17 6 9 1016.8 1016.4 0.0

Other Formats:

Comma delimited format used in spreadsheet applications
http://www.bom.gov.au/fwo/IDQ60801/IDQ60801.94342.axf

JavaScript Object Notation format (JSON) in row-major order
http://www.bom.gov.au/fwo/IDQ60801/IDQ60801.94342.json